Charter Quote
Worldwide +1-877-727-2538 Call
Select Language Lang
SAFETY RELIABILITY EXPERIENCE

Buckley Afb Airport (KBKF) - Jet Charter Services

AIRPORT INFORMATION
ICAOKBKF
IATABKF
LOCATIONAurora, CO, United States
FACILITY TYPEAIRPORT
Runway Length (ft) Width (ft) Surface Type Elevation (ft)
14/32 11000 150 PEM 5658.29508

At Paramount Business Jets you can hire chartered private jets to and from Buckley Afb Airport with as little as 4 hours of notice. All flights booked via Paramount Business Jets are operated by certified direct air carriers that meet and exceed the FAA part 135 and 121 protocol or a foreign equivalent safety authority. Furthermore, Paramount Business Jets subscribes to ARGUS for their third party safety checks of operators, aircraft, and crews prior each and every flight to and from Buckley Afb Airport and worldwide.

  • Quote a trip using Buckley Afb Airport or call us 24/7 - 365 days a year at +1-877-727-2538.
Questions? Call +1-877-727-2538

METAR Weather Data at Buckley Afb Airport, KBKF, BKF

STATIONKBKF
OBSERVEDSun Mar 24, 06:58 UTC
NOWSun Mar 24, 07:08 UTC
AGE10 min ago
WINDS at 10 mph
VISIBILITY10 miles
CLOUDSclear skies
TEMP32°F (0°C)
WIND CHILL24°F (-4°C)
DEWPT32°F (0°C)
HUMIDITY100%
BAROMETER1017 hPa (30.03 in Hg)
METARKBKF 240658Z 18009KT 10SM CLR 00/00 A3003 RMK AO2A SLP166 T00001001 400700000

Call us on +1-877-727-2538 (24 Hours) to Hire a Private Jet or Get a Quick Quote.

Find Airports Near any Location

Processing
...